HOURLY OBS INDEX

015

Northern Plateau--Barkly/Alice Spgs

ALICE SPRINGS AIRPORT

Site: 015590
Alt: 546.0m
11km SSE of ALICE SPRINGS


  Time     Wind        Temp  DP   Baro     Rain since   Rain past  Vis(m), Cloud(base in m), Weather
  local        km/h                         9am  last   hr   10m    
Thu 15:30  SSE 22/ 32  33.7  9.7  1009.6    0.0   0.0   0.0   0.0   10000 
Thu 15:30  SSE 22/ 32  33.7  9.7  1009.6    0.0   0.0  ----   0.0   10000 
Thu 16:00  SSE 20/ 33  33.0  9.7  1009.4    0.0   0.0   0.0   0.0   10000 
Thu 16:30  SSE 20/ 30  32.7  9.5  1009.3    0.0   0.0   0.0   0.0   10000 
Thu 16:30  SSE 20/ 30  32.7  9.5  1009.3    0.0   0.0  ----   0.0   10000 
Thu 17:00    S 22/ 37  32.9  9.7  1009.2    0.0   0.0   0.0   0.0   10000 
Thu 17:00    S 22/ 37  32.9  9.7  1009.2    0.0   0.0  ----   0.0   10000 
Thu 17:00    S 22/ 37  32.9  9.7  1009.2    0.0   0.0  ----   0.0   10000 
Thu 17:30   SE 17/ 20  32.3  9.2  1009.4    0.0   0.0   0.0   0.0   10000 
Thu 17:30   SE 17/ 20  32.3  9.2  1009.4    0.0   0.0  ----   0.0   10000 
Thu 18:00  SSE 22/ 32  32.3  9.2  1009.6    0.0   0.0   0.0   0.0   10000 
Thu 18:00  SSE 22/ 32  32.3  9.2  1009.6    0.0   0.0  ----   0.0   10000 
Thu 18:30  SSE 20/ 33  31.4  8.4  1009.7    0.0   0.0   0.0   0.0   10000 
Thu 19:00  SSE 20/ 32  30.5  7.7  1010.2    0.0   0.0   0.0   0.0   10000 
Thu 19:00  SSE 20/ 32  30.5  7.7  1010.2    0.0   0.0  ----   0.0   10000 
Thu 19:30   SE 20/ 32  29.7  7.6  1010.6    0.0   0.0   0.0   0.0   10000 
Thu 19:30   SE 20/ 32  29.7  7.6  1010.6    0.0   0.0  ----   0.0   10000 
Thu 19:30   SE 20/ 32  29.7  7.6  1010.6    0.0   0.0  ----   0.0   10000 
Thu 20:00   SE 20/ 32  29.1  7.1  1010.7    0.0   0.0   0.0   0.0   10000 
Thu 20:00   SE 20/ 32  29.1  7.1  1010.7    0.0   0.0  ----   0.0   10000 
Thu 20:30   SE 19/ 26  28.7  6.1  1011.2    0.0   0.0   0.0   0.0   10000 

JERVOIS

Site: 015602
Alt: 328.0m
247km ENE of ALICE SPRINGS


  Time     Wind        Temp  DP   Baro     Rain since   Rain past  Vis(m), Cloud(base in m), Weather
  local        km/h                         9am  last   hr   10m    
Thu 15:30    S 20/ 37  34.5  9.7  1007.4    0.0   0.0   0.0   0.0   ----- 
Thu 16:00  SSE 24/ 43  34.9  8.6  1007.2    0.0   0.0   0.0   0.0   ----- 
Thu 16:30    S 20/ 30  34.5  7.5  1007.3    0.0   0.0   0.0   0.0   ----- 
Thu 17:00  SSE 22/ 32  34.1  7.2  1007.3    0.0   0.0   0.0   0.0   ----- 
Thu 17:30    S 20/ 33  34.0  6.3  1007.5    0.0   0.0   0.0   0.0   ----- 
Thu 17:30    S 20/ 33  34.0  6.3  1007.5    0.0   0.0  ----   0.0   ----- 
Thu 18:00    S 19/ 28  33.5  6.7  1007.8    0.0   0.0   0.0   0.0   ----- 
Thu 18:30    S 19/ 33  32.6  6.0  1008.1    0.0   0.0   0.0   0.0   ----- 
Thu 19:00  SSE 22/ 33  31.6  6.6  1008.4    0.0   0.0   0.0   0.0   ----- 
Thu 19:30    S 22/ 32  30.9  6.7  1008.5    0.0   0.0   0.0   0.0   ----- 
Thu 19:30    S 22/ 32  30.9  6.7  1008.5    0.0   0.0  ----   0.0   ----- 
Thu 19:30    S 22/ 32  30.9  6.7  1008.5    0.0   0.0  ----   0.0   ----- 
Thu 20:00    S 22/ 35  30.5  7.0  1008.9    0.0   0.0   0.0   0.0   ----- 
Thu 20:30    S 19/ 30  29.9  7.2  1009.4    0.0   0.0   0.0   0.0   ----- 

RABBIT FLAT

Site: 015666
Alt: 340.0m
296km NW of YUENDUMU


  Time     Wind        Temp  DP   Baro     Rain since   Rain past  Vis(m), Cloud(base in m), Weather
  local        km/h                         9am  last   hr   10m    
Thu 15:30  ENE 20/ 28  42.3 10.3  1001.1    0.0   0.0   0.0   0.0   ----- 
Thu 15:43   NW 20/ 33  37.1 15.5  1002.2    0.0   0.0  ----   0.0   ----- 
Thu 15:49    W 30/ 50  32.8 17.8  1002.3    0.0   0.0  ----   0.0   ----- 
Thu 16:00    W 39/ 61  28.4 19.9  1001.8    0.0   0.0   0.0   0.0   ----- 
Thu 16:11  NNW 19/ 33  30.3 20.8  1002.5    0.0   0.0  ----   0.0   ----- 
Thu 16:30  NNE 17/ 22  32.9 19.0  1002.3    0.0   0.0   0.0   0.0   ----- 
Thu 16:42    N 28/ 41  33.5 15.9  1001.8    0.0   0.0  ----   0.0   ----- 
Thu 16:54  NNE 35/ 58  32.9 16.7  1000.9    0.0   0.0  ----   0.0   ----- 
Thu 17:00  NNE 35/ 58  33.7 18.2  1001.0    0.0   0.0   0.0   0.0   ----- 
Thu 17:30  NNE 19/ 32  37.1 15.0  1001.6    0.0   0.0   0.0   0.0   ----- 
Thu 17:30  NNE 19/ 32  37.1 15.0  1001.6    0.0   0.0  ----   0.0   ----- 
Thu 17:39   SE 39/ 56  34.8 16.1  1003.3    0.0   0.0  ----   0.0   ----- 
Thu 17:39   SE 39/ 56  34.8 16.1  1003.3    0.0   0.0  ----   0.0   ----- 
Thu 17:39   SE 39/ 56  34.8 16.1  1003.3    0.0   0.0  ----   0.0   ----- 
Thu 17:39   SE 39/ 56  34.8 16.1  1003.3    0.0   0.0  ----   0.0   ----- 
Thu 17:47  SSE 43/ 72  33.1 17.7  1004.6    0.0   0.0  ----   0.0   ----- 
Thu 17:47  SSE 43/ 72  33.1 17.7  1004.6    0.0   0.0  ----   0.0   ----- 
Thu 17:47  SSE 43/ 72  33.1 17.7  1004.6    0.0   0.0  ----   0.0   ----- 
Thu 17:47  SSE 43/ 72  33.1 17.7  1004.6    0.0   0.0  ----   0.0   ----- 
Thu 18:00  SSE 46/ 63  29.5 20.1  1005.3    0.0   0.0   0.0   0.0   ----- 
Thu 18:02  SSE 45/ 63  29.6 20.2  1005.2    0.0   0.0  ----   0.0   ----- 
Thu 18:21  ESE 41/ 65  27.7 20.5  1005.1    0.0   0.0  ----   0.0   ----- 
Thu 18:24  ESE 37/ 65  27.7 20.8  1005.0    0.0   0.0  ----   0.0   ----- 
Thu 18:30  ESE 37/ 58  27.7 21.3  1004.8    0.0   0.0   0.0   0.0   ----- 
Thu 18:55    E 37/ 54  26.3 20.4  1004.4    0.0   0.0  ----   0.0   ----- 
Thu 19:00    E 35/ 50  26.1 20.7  1004.3    0.0   0.0   0.0   0.0   ----- 
Thu 19:30   NE 22/ 30  27.3 19.6  1004.8    0.0   0.0   0.0   0.0   ----- 
Thu 19:30   NE 22/ 30  27.3 19.6  1004.8    0.0   0.0  ----   0.0   ----- 
Thu 19:30   NE 22/ 30  27.3 19.6  1004.8    0.0   0.0  ----   0.0   ----- 
Thu 20:00    N 17/ 22  28.1 18.5  1004.7    0.0   0.0   0.0   0.0   ----- 
Thu 20:30  NNE 15/ 22  29.9 17.0  1004.8    0.0   0.0   0.0   0.0   ----- 

TENNANT CREEK AIRPORT

Site: 015135
Alt: 375.7m
1km NW of TENNANT CREEK


  Time     Wind        Temp  DP   Baro     Rain since   Rain past  Vis(m), Cloud(base in m), Weather
  local        km/h                         9am  last   hr   10m    
Thu 15:30   SE 19/ 26  39.7 17.2  1003.7    0.0   0.0   0.0   0.0   10000|BR2490 
Thu 16:00    E 20/ 32  39.3 16.8  1003.3    0.0   0.0   0.0   0.0   10000|BR2550 
Thu 16:30   SE 20/ 33  38.9 15.9  1003.2    0.0   0.0   0.0   0.0   10000|SC2820 
Thu 17:00    E 24/ 35  39.5 17.0  1003.1    0.0   0.0   0.0   0.0   10000|BR2700 
Thu 17:30    E 20/ 30  38.4 16.1  1002.9    0.0   0.0   0.0   0.0   10000|SC2760 
Thu 17:30    E 20/ 30  38.4 16.1  1002.9    0.0   0.0  ----   0.0   10000|SC2760 
Thu 18:00  ESE 20/ 30  38.4 16.1  1002.9    0.0   0.0   0.0   0.0   10000|SC3750 
Thu 18:30  ESE 24/ 33  38.1 15.8  1003.0    0.0   0.0   0.0   0.0   10000|SC3000 
Thu 19:00   NE 20/ 26  36.7 17.8  1003.4    0.0   0.0   0.0   0.0   10000|OC2940 
Thu 19:25   NE 28/ 46  35.3 18.8  1004.4    0.0   0.0  ----   0.0   10000|OC2880 
Thu 19:25   NE 28/ 46  35.3 18.8  1004.4    0.0   0.0  ----   0.0   10000|OC2880 
Thu 19:25   NE 28/ 46  35.3 18.8  1004.4    0.0   0.0  ----   0.0   10000|OC2880 
Thu 19:30   NE 32/ 46  34.4 19.6  1004.6    0.0   0.0   0.0   0.0   10000|OC2880 
Thu 19:30   NE 32/ 46  34.4 19.6  1004.6    0.0   0.0  ----   0.0   10000|OC2880 
Thu 19:30   NE 32/ 46  34.4 19.6  1004.6    0.0   0.0  ----   0.0   10000|OC2880 
Thu 20:00  NNE 32/ 39  33.0 20.5  1004.7    0.0   0.0   0.0   0.0   10000|SC2880 
Thu 20:30  NNE 24/ 33  32.7 20.6  1005.5    0.0   0.0   0.0   0.0   10000|BR2880 

TERRITORY GRAPE FARM

Site: 015643
Alt: 565.6m
141km N of ALICE SPRINGS


  Time     Wind        Temp  DP   Baro     Rain since   Rain past  Vis(m), Cloud(base in m), Weather
  local        km/h                         9am  last   hr   10m    
Thu 15:30  ENE  9/ 20  37.7 13.0  1006.7    0.0   0.0   0.0   0.0   ----- 
Thu 16:00    S 11/ 22  37.1 12.5  1006.3    0.0   0.0   0.0   0.0   ----- 
Thu 16:30  SSE 19/ 26  37.6 12.9  1006.0    0.0   0.0   0.0   0.0   ----- 
Thu 17:00  SSE 15/ 24  37.1 12.5  1005.8    0.0   0.0   0.0   0.0   ----- 
Thu 17:30    S 13/ 24  38.5 13.0  1005.8    0.0   0.0   0.0   0.0   ----- 
Thu 17:30    S 13/ 24  38.5 13.0  1005.8    0.0   0.0  ----   0.0   ----- 
Thu 18:00  SSE 19/ 33  37.1 12.5  1006.0    0.0   0.0   0.0   0.0   ----- 
Thu 18:30  SSE 19/ 28  36.7 12.2  1006.2    0.0   0.0   0.0   0.0   ----- 
Thu 19:00    S 20/ 32  35.8 12.1  1006.6    0.0   0.0   0.0   0.0   ----- 
Thu 19:30    S 28/ 41  34.3 10.2  1007.3    0.0   0.0   0.0   0.0   ----- 
Thu 19:30    S 28/ 41  34.3 10.2  1007.3    0.0   0.0  ----   0.0   ----- 
Thu 19:30    S 28/ 41  34.3 10.2  1007.3    0.0   0.0  ----   0.0   ----- 
Thu 20:00    S 30/ 41  33.1 10.4  1007.9    0.0   0.0   0.0   0.0   ----- 
Thu 20:30  SSE 26/ 37  32.3 10.4  1008.6    0.0   0.0   0.0   0.0   ----- 

WALUNGURRU AIRPORT

Site: 015664
Alt: 454.3m
272km WSW of YUENDUMU


  Time     Wind        Temp  DP   Baro     Rain since   Rain past  Vis(m), Cloud(base in m), Weather
  local        km/h                         9am  last   hr   10m    
Thu 15:30  ESE 24/ 46  39.5  6.0  1007.0    0.0   0.0   0.0   0.0   ----- 
Thu 16:00  SSE 19/ 30  39.1  4.5  1006.5    0.0   0.0   0.0   0.0   ----- 
Thu 16:30  SSE 17/ 30  39.7  5.0  1006.0    0.0   0.0   0.0   0.0   ----- 
Thu 17:00    S 28/ 37  38.8  4.3  1005.8    0.0   0.0   0.0   0.0   ----- 
Thu 17:30    S 26/ 37  38.5  4.1  1006.0    0.0   0.0   0.0   0.0   ----- 
Thu 17:30    S 26/ 37  38.5  4.1  1006.0    0.0   0.0  ----   0.0   ----- 
Thu 18:00    S 26/ 37  38.0  3.7  1006.2    0.0   0.0   0.0   0.0   ----- 
Thu 18:30  SSE 28/ 39  37.1  4.1  1006.5    0.0   0.0   0.0   0.0   ----- 
Thu 19:00  SSE 28/ 39  36.1  4.4  1006.6    0.0   0.0   0.0   0.0   ----- 
Thu 19:30  SSE 30/ 37  35.1  4.6  1007.2    0.0   0.0   0.0   0.0   ----- 
Thu 19:30  SSE 30/ 37  35.1  4.6  1007.2    0.0   0.0  ----   0.0   ----- 
Thu 19:30  SSE 30/ 37  35.1  4.6  1007.2    0.0   0.0  ----   0.0   ----- 
Thu 20:00  SSE 32/ 41  34.0  5.5  1007.7    0.0   0.0   0.0   0.0   ----- 
Thu 20:30  SSE 30/ 39  33.2  5.7  1008.1    0.0   0.0   0.0   0.0   ----- 

YULARA AIRPORT

Site: 015635
Alt: 492.0m
7km N of YULARA


  Time     Wind        Temp  DP   Baro     Rain since   Rain past  Vis(m), Cloud(base in m), Weather
  local        km/h                         9am  last   hr   10m    
Thu 15:30  SSE 22/ 35  32.6  6.0  1010.7    0.0   0.0   0.0   0.0   10000 
Thu 16:00    S 24/ 33  33.4  6.6  1010.4    0.0   0.0   0.0   0.0   10000 
Thu 16:30   SE 19/ 32  33.4  6.6  1009.9    0.0   0.0   0.0   0.0   10000 
Thu 17:00  SSE 22/ 37  33.2  4.9  1009.6    0.0   0.0   0.0   0.0   10000 
Thu 17:30    S 22/ 30  33.6  4.3  1009.6    0.0   0.0   0.0   0.0   10000 
Thu 17:30    S 22/ 30  33.6  4.3  1009.6    0.0   0.0  ----   0.0   10000 
Thu 18:00  SSE 30/ 41  32.7  1.7  1009.7    0.0   0.0   0.0   0.0   10000 
Thu 18:30  SSE 28/ 37  32.0  1.2  1010.0    0.0   0.0   0.0   0.0   10000 
Thu 19:00  SSE 24/ 37  31.0  0.4  1010.5    0.0   0.0   0.0   0.0   10000 
Thu 19:30  SSE 24/ 33  29.6  0.2  1010.8    0.0   0.0   0.0   0.0   10000 
Thu 19:30  SSE 24/ 33  29.6  0.2  1010.8    0.0   0.0  ----   0.0   10000 
Thu 19:30  SSE 24/ 33  29.6  0.2  1010.8    0.0   0.0  ----   0.0   10000 
Thu 20:00  SSE 24/ 37  28.7  2.1  1011.2    0.0   0.0   0.0   0.0   10000 
Thu 20:30    S 24/ 37  27.9  2.2  1011.6    0.0   0.0   0.0   0.0   10000